Time;durP1;ratioP1;P1;durP2;ratioP2;P2;SDS_P1;SDS_P2;PMS_P1;PMS_P2;Temp;Humidity;BMP_temperature;BMP_pressure;BME280_temperature;BME280_humidity;BME280_pressure;Samples;Min_cycle;Max_cycle;Signal;HPM_P1;HPM_P2
2022/09/05 00:02:39;;;;;;;5.13;3.80;;;;;;;;;;5072354;28;20028;-76
2022/09/05 00:05:24;;;;;;;5.18;3.92;;;;;;;;;;5072441;28;20021;-76
2022/09/05 00:07:50;;;;;;;5.28;3.67;;;;;;;;;;5072400;28;20104;-77
2022/09/05 00:10:16;;;;;;;6.03;3.80;;;;;;;;;;5072412;28;20078;-78
2022/09/05 00:12:42;;;;;;;7.60;3.88;;;;;;;;;;5072459;28;20143;-75
2022/09/05 00:15:27;;;;;;;5.25;4.55;;;;;;;;;;5071903;28;20056;-76
2022/09/05 00:17:53;;;;;;;;;;;;;;;;;;5072493;28;20044;-76
2022/09/05 00:20:19;;;;;;;3.90;3.47;;;;;;;;;;5072412;28;19999;-77
2022/09/05 00:23:04;;;;;;;4.63;3.53;;;;;;;;;;5072212;28;20024;-76
2022/09/05 00:25:30;;;;;;;4.32;3.45;;;;;;;;;;5072031;28;20020;-75
2022/09/05 00:28:15;;;;;;;5.18;3.60;;;;;;;;;;5072213;28;20028;-77
2022/09/05 00:30:46;;;;;;;3.45;2.60;;;;;;;;;;5072101;28;20562;-78
2022/09/05 00:33:21;;;;;;;3.30;2.90;;;;;;;;;;5071919;28;20082;-75
2022/09/05 00:35:47;;;;;;;3.80;3.05;;;;;;;;;;5072183;28;20029;-76
2022/09/05 00:38:15;;;;;;;6.10;3.30;;;;;;;;;;5071716;28;20038;-75
2022/09/05 00:40:49;;;;;;;3.63;2.80;;;;;;;;;;5071550;28;20364;-76
2022/09/05 00:43:34;;;;;;;4.75;3.58;;;;;;;;;;5071883;28;20411;-75
2022/09/05 00:46:09;;;;;;;4.95;2.95;;;;;;;;;;5053737;28;20438;-76
2022/09/05 00:48:50;;;;;;;4.28;3.40;;;;;;;;;;5071955;28;20103;-76
2022/09/05 00:51:20;;;;;;;3.50;2.92;;;;;;;;;;5072198;28;20036;-75
2022/09/05 00:53:58;;;;;;;4.13;3.13;;;;;;;;;;5071913;28;20029;-76
2022/09/05 00:56:43;;;;;;;4.05;3.15;;;;;;;;;;5071683;28;20024;-75
2022/09/05 00:59:28;;;;;;;4.80;3.42;;;;;;;;;;5071578;28;20044;-75
2022/09/05 01:01:54;;;;;;;;;;;;;;;;;;5071989;28;20387;-74
2022/09/05 01:04:38;;;;;;;3.20;2.72;;;;;;;;;;5072019;28;19912;-75
2022/09/05 01:07:07;;;;;;;4.72;3.45;;;;;;;;;;5072020;28;20033;-74
2022/09/05 01:09:43;;;;;;;3.28;2.88;;;;;;;;;;5071468;28;20033;-75
2022/09/05 01:12:21;;;;;;;5.38;3.25;;;;;;;;;;5071857;28;20387;-75
2022/09/05 01:14:54;;;;;;;4.40;3.53;;;;;;;;;;5071796;28;20095;-75
2022/09/05 01:17:38;;;;;;;3.70;3.35;;;;;;;;;;5071476;28;20383;-75
2022/09/05 01:20:27;;;;;;;4.40;3.40;;;;;;;;;;5071560;28;20029;-74
2022/09/05 01:22:53;;;;;;;3.78;2.83;;;;;;;;;;5065065;28;20475;-75
2022/09/05 01:25:38;;;;;;;4.10;2.80;;;;;;;;;;5071824;28;20032;-76
2022/09/05 01:28:04;;;;;;;4.18;2.85;;;;;;;;;;5071720;28;20094;-75
2022/09/05 01:30:48;;;;;;;3.50;3.03;;;;;;;;;;5071229;28;20400;-76
2022/09/05 01:33:14;;;;;;;;;;;;;;;;;;5071792;28;20024;-75
2022/09/05 01:35:59;;;;;;;3.53;3.17;;;;;;;;;;5071650;28;19904;-76
2022/09/05 01:38:44;;;;;;;3.80;3.40;;;;;;;;;;5071513;28;20091;-76
2022/09/05 01:41:20;;;;;;;5.10;3.88;;;;;;;;;;5071670;28;20162;-78
2022/09/05 01:43:46;;;;;;;4.70;3.22;;;;;;;;;;5071420;28;20032;-76
2022/09/05 01:46:31;;;;;;;5.78;3.72;;;;;;;;;;5071738;28;20056;-77
2022/09/05 01:49:19;;;;;;;4.38;3.45;;;;;;;;;;5071529;28;20032;-77
2022/09/05 01:51:45;;;;;;;4.72;3.70;;;;;;;;;;5071537;28;20544;-75
2022/09/05 01:54:27;;;;;;;4.90;4.40;;;;;;;;;;5074045;28;20115;-78
2022/09/05 01:57:01;;;;;;;6.53;4.18;;;;;;;;;;5074940;28;20028;-76
2022/09/05 01:59:39;;;;;;;4.82;4.32;;;;;;;;;;5074976;28;20036;-76
2022/09/05 02:02:05;;;;;;;4.10;3.65;;;;;;;;;;5074911;28;20021;-76
2022/09/05 02:04:51;;;;;;;5.57;3.92;;;;;;;;;;5074881;28;20058;-77
2022/09/05 02:07:23;;;;;;;5.72;4.43;;;;;;;;;;5074868;28;20103;-76
2022/09/05 02:09:52;;;;;;;6.60;4.40;;;;;;;;;;5074704;28;20043;-76
2022/09/05 02:12:18;;;;;;;5.78;4.78;;;;;;;;;;5056576;28;20037;-76
2022/09/05 02:14:51;;;;;;;5.68;4.18;;;;;;;;;;5074156;28;20094;-76
2022/09/05 02:17:36;;;;;;;5.82;4.53;;;;;;;;;;5074484;28;20032;-76
2022/09/05 02:20:21;;;;;;;4.50;4.10;;;;;;;;;;5074532;28;20089;-75
2022/09/05 02:23:08;;;;;;;5.10;4.57;;;;;;;;;;5074268;28;20025;-76
2022/09/05 02:25:53;;;;;;;4.82;4.30;;;;;;;;;;5074149;28;20029;-77
2022/09/05 02:28:19;;;;;;;;;;;;;;;;;;5074637;28;20028;-77
2022/09/05 02:30:49;;;;;;;6.22;3.92;;;;;;;;;;5074207;28;19904;-75
2022/09/05 02:33:21;;;;;;;5.57;4.35;;;;;;;;;;5074216;28;20498;-76
2022/09/05 02:35:56;;;;;;;5.07;3.80;;;;;;;;;;5074338;28;20105;-75
2022/09/05 02:38:41;;;;;;;4.25;3.83;;;;;;;;;;5073710;28;20029;-78
2022/09/05 02:41:22;;;;;;;5.95;3.92;;;;;;;;;;5074045;28;20032;-74
2022/09/05 02:44:07;;;;;;;4.97;4.03;;;;;;;;;;5073813;28;20103;-75
2022/09/05 02:46:52;;;;;;;6.25;4.13;;;;;;;;;;5073741;28;20033;-77
2022/09/05 02:49:25;;;;;;;5.13;3.75;;;;;;;;;;5073840;28;20024;-75
2022/09/05 02:51:59;;;;;;;6.63;3.83;;;;;;;;;;5074083;28;20078;-75
2022/09/05 02:54:28;;;;;;;4.47;3.97;;;;;;;;;;5074006;28;20017;-75
2022/09/05 02:56:57;;;;;;;5.80;4.15;;;;;;;;;;5073729;28;20032;-75
2022/09/05 02:59:23;;;;;;;5.13;4.32;;;;;;;;;;5073857;28;20039;-75
2022/09/05 03:01:49;;;;;;;5.20;4.20;;;;;;;;;;5073666;28;20112;-75
2022/09/05 03:04:34;;;;;;;6.35;4.47;;;;;;;;;;5072886;28;20150;-76
2022/09/05 03:07:16;;;;;;;6.50;5.53;;;;;;;;;;5073474;28;20023;-75
2022/09/05 03:09:48;;;;;;;5.82;5.03;;;;;;;;;;5073255;28;20024;-76
2022/09/05 03:12:32;;;;;;;6.10;4.60;;;;;;;;;;5073466;28;20021;-76
2022/09/05 03:15:13;;;;;;;5.97;4.10;;;;;;;;;;5073326;28;20064;-76
2022/09/05 03:17:58;;;;;;;5.95;4.45;;;;;;;;;;5073231;28;20034;-74
2022/09/05 03:20:24;;;;;;;;;;;;;;;;;;5073940;28;20025;-76
2022/09/05 03:23:08;;;;;;;4.97;4.47;;;;;;;;;;5073059;28;20270;-77
2022/09/05 03:25:51;;;;;;;5.93;4.38;;;;;;;;;;5073038;28;20064;-76
2022/09/05 03:28:36;;;;;;;7.13;4.38;;;;;;;;;;5073397;28;20033;-75
2022/09/05 03:31:02;;;;;;;8.45;5.30;;;;;;;;;;5073276;28;20021;-75
2022/09/05 03:33:28;;;;;;;7.28;5.13;;;;;;;;;;5054903;28;20475;-77
2022/09/05 03:36:13;;;;;;;6.00;4.70;;;;;;;;;;5073028;28;20142;-76
2022/09/05 03:38:57;;;;;;;8.35;5.63;;;;;;;;;;5072885;28;20111;-75
2022/09/05 03:41:34;;;;;;;7.43;4.75;;;;;;;;;;5072926;28;20471;-77
2022/09/05 03:44:03;;;;;;;6.22;4.32;;;;;;;;;;5072620;28;20067;-78
2022/09/05 03:46:38;;;;;;;5.88;4.65;;;;;;;;;;5072422;28;20056;-76
2022/09/05 03:49:15;;;;;;;5.53;4.93;;;;;;;;;;5072829;28;20102;-74
2022/09/05 03:51:41;;;;;;;5.57;4.97;;;;;;;;;;5072758;28;20052;-77
2022/09/05 03:54:07;;;;;;;5.28;4.78;;;;;;;;;;5072835;28;20036;-75
2022/09/05 03:56:42;;;;;;;7.93;5.22;;;;;;;;;;5072364;28;20030;-75
2022/09/05 03:59:08;;;;;;;6.65;4.90;;;;;;;;;;5072634;28;20119;-74
2022/09/05 04:01:40;;;;;;;6.63;5.10;;;;;;;;;;5072540;28;20537;-74
2022/09/05 04:04:11;;;;;;;7.55;5.38;;;;;;;;;;5072520;28;20032;-77
2022/09/05 04:06:43;;;;;;;6.53;4.63;;;;;;;;;;5072681;28;20024;-78
2022/09/05 04:09:22;;;;;;;6.70;5.70;;;;;;;;;;5072353;28;20027;-75
2022/09/05 04:11:50;;;;;;;6.88;6.03;;;;;;;;;;5072284;28;20103;-76
2022/09/05 04:14:19;;;;;;;5.50;4.68;;;;;;;;;;5072385;28;20108;-76
2022/09/05 04:16:45;;;;;;;12.63;8.35;;;;;;;;;;5053451;28;20056;-77
2022/09/05 04:19:26;;;;;;;5.93;5.20;;;;;;;;;;5072195;28;20043;-75
2022/09/05 04:22:11;;;;;;;7.57;5.38;;;;;;;;;;5072183;28;20024;-79
2022/09/05 04:24:49;;;;;;;5.57;4.82;;;;;;;;;;5072078;28;20028;-77
2022/09/05 04:27:33;;;;;;;7.95;5.35;;;;;;;;;;5072373;28;20024;-77
2022/09/05 04:29:59;;;;;;;;;;;;;;;;;;5072635;28;20032;-77
2022/09/05 04:32:44;;;;;;;6.13;4.72;;;;;;;;;;5071789;28;19910;-77
2022/09/05 04:35:28;;;;;;;5.85;4.60;;;;;;;;;;5071966;28;20028;-77
2022/09/05 04:37:58;;;;;;;6.28;4.82;;;;;;;;;;5071999;28;20024;-77
2022/09/05 04:40:57;;;;;;;6.05;4.80;;;;;;;;;;5072160;28;20429;-76
2022/09/05 04:43:26;;;;;;;5.63;4.80;;;;;;;;;;5049225;28;20488;-77
2022/09/05 04:46:01;;;;;;;6.38;4.47;;;;;;;;;;5072186;28;20027;-77
2022/09/05 04:48:32;;;;;;;5.70;5.10;;;;;;;;;;5072169;28;20099;-76
2022/09/05 04:50:58;;;;;;;4.78;4.35;;;;;;;;;;5072011;28;20032;-77
2022/09/05 04:53:38;;;;;;;6.05;4.82;;;;;;;;;;5072172;28;20426;-77
2022/09/05 04:56:09;;;;;;;12.65;6.13;;;;;;;;;;5071123;28;20020;-77
2022/09/05 04:58:36;;;;;;;8.65;4.97;;;;;;;;;;5072217;28;20459;-78
2022/09/05 05:01:08;;;;;;;9.40;8.27;;;;;;;;;;5071670;28;20483;-80
2022/09/05 05:03:35;;;;;;;12.27;10.35;;;;;;;;;;5072091;28;20024;-76
2022/09/05 05:06:03;;;;;;;6.72;4.93;;;;;;;;;;5071754;28;20074;-78
2022/09/05 05:08:48;;;;;;;6.28;4.75;;;;;;;;;;5071710;28;20043;-76
2022/09/05 05:11:14;;;;;;;;;;;;;;;;;;5054240;28;20025;-80
2022/09/05 05:13:40;;;;;;;5.45;4.88;;;;;;;;;;5071546;28;19904;-78
2022/09/05 05:16:12;;;;;;;7.07;4.38;;;;;;;;;;5071608;28;20095;-78
2022/09/05 05:18:41;;;;;;;5.55;4.82;;;;;;;;;;5071464;28;20090;-77
2022/09/05 05:21:08;;;;;;;6.47;4.85;;;;;;;;;;5071520;28;20024;-77
2022/09/05 05:23:36;;;;;;;5.20;4.70;;;;;;;;;;5070878;28;20028;-77
2022/09/05 05:26:04;;;;;;;6.40;4.90;;;;;;;;;;5071540;28;20037;-78
2022/09/05 05:28:41;;;;;;;7.88;5.03;;;;;;;;;;5074775;28;20071;-77
2022/09/05 05:31:26;;;;;;;5.50;4.57;;;;;;;;;;5069705;28;20094;-77
2022/09/05 05:33:53;;;;;;;5.75;5.20;;;;;;;;;;5070932;28;20024;-80
2022/09/05 05:36:24;;;;;;;6.97;5.22;;;;;;;;;;5079364;28;20039;-77
2022/09/05 05:39:03;;;;;;;8.25;5.50;;;;;;;;;;5072950;28;20040;-80
2022/09/05 05:41:48;;;;;;;5.60;4.85;;;;;;;;;;5072270;28;20028;-77
2022/09/05 05:44:15;;;;;;;5.88;5.28;;;;;;;;;;5074592;28;20031;-78
2022/09/05 05:46:45;;;;;;;6.40;5.00;;;;;;;;;;5091002;28;20055;-77
2022/09/05 05:49:30;;;;;;;5.90;5.18;;;;;;;;;;5094636;28;20050;-76
2022/09/05 05:52:20;;;;;;;7.57;5.50;;;;;;;;;;5083618;28;20030;-78
2022/09/05 05:54:52;;;;;;;8.63;6.13;;;;;;;;;;5061098;28;20072;-77
2022/09/05 05:57:38;;;;;;;7.03;6.32;;;;;;;;;;5053188;28;20033;-75
2022/09/05 06:00:23;;;;;;;6.90;5.32;;;;;;;;;;5053488;28;20104;-77
2022/09/05 06:03:08;;;;;;;6.50;5.72;;;;;;;;;;5070864;28;20041;-75
2022/09/05 06:05:43;;;;;;;6.60;5.95;;;;;;;;;;5072601;28;20494;-75
2022/09/05 06:08:09;;;;;;;8.57;6.70;;;;;;;;;;5073224;28;20083;-76
2022/09/05 06:10:35;;;;;;;8.60;7.43;;;;;;;;;;5073795;28;20029;-77
2022/09/05 06:13:13;;;;;;;6.22;5.47;;;;;;;;;;5065550;28;20085;-77
2022/09/05 06:16:00;;;;;;;8.55;6.30;;;;;;;;;;5073513;28;20101;-79
2022/09/05 06:18:45;;;;;;;6.38;5.50;;;;;;;;;;5072040;28;20041;-77
2022/09/05 06:21:16;;;;;;;6.53;5.78;;;;;;;;;;5069907;28;20035;-77
2022/09/05 06:24:01;;;;;;;8.15;6.85;;;;;;;;;;5068544;28;20037;-78
2022/09/05 06:26:27;;;;;;;8.80;6.35;;;;;;;;;;5060409;28;20438;-77
2022/09/05 06:29:12;;;;;;;8.23;5.70;;;;;;;;;;5053069;28;20100;-78
2022/09/05 06:31:56;;;;;;;7.22;5.78;;;;;;;;;;5060185;28;20425;-80
2022/09/05 06:34:22;;;;;;;6.45;5.38;;;;;;;;;;5074319;28;20035;-79
2022/09/05 06:37:08;;;;;;;8.05;7.25;;;;;;;;;;5083187;28;20028;-79
2022/09/05 06:39:38;;;;;;;6.55;5.95;;;;;;;;;;5048966;28;20411;-82
2022/09/05 06:42:19;;;;;;;6.75;6.15;;;;;;;;;;5069311;28;20040;-83
2022/09/05 06:45:08;;;;;;;21.77;10.70;;;;;;;;;;5065934;28;20082;-80
2022/09/05 06:47:35;;;;;;;71.97;25.88;;;;;;;;;;5060391;28;20044;-83
2022/09/05 06:50:04;;;;;;;61.65;46.90;;;;;;;;;;5069423;28;20165;-80
2022/09/05 06:52:30;;;;;;;58.25;22.05;;;;;;;;;;5075744;28;20040;-80
2022/09/05 06:55:15;;;;;;;49.80;20.65;;;;;;;;;;5073794;28;20483;-82
2022/09/05 06:57:41;;;;;;;;;;;;;;;;;;5053260;28;20105;-78
2022/09/05 07:00:28;;;;;;;10.60;8.07;;;;;;;;;;5072123;28;19905;-81
2022/09/05 07:03:10;;;;;;;33.40;14.38;;;;;;;;;;5072262;28;20473;-81
2022/09/05 07:05:39;;;;;;;45.03;18.50;;;;;;;;;;5051485;28;20021;-82
2022/09/05 07:08:29;;;;;;;41.42;22.27;;;;;;;;;;5070821;28;20032;-81
2022/09/05 07:10:55;;;;;;;33.17;28.73;;;;;;;;;;5065031;28;20037;-82
2022/09/05 07:13:36;;;;;;;18.98;13.18;;;;;;;;;;5074435;28;20111;-82
2022/09/05 07:16:05;;;;;;;25.52;13.80;;;;;;;;;;5085265;28;20079;-82
2022/09/05 07:18:36;;;;;;;18.98;11.73;;;;;;;;;;5092057;28;20040;-86
2022/09/05 07:21:05;;;;;;;19.98;11.00;;;;;;;;;;5073351;28;20024;-84
2022/09/05 07:23:39;;;;;;;16.05;10.10;;;;;;;;;;5079587;28;20059;-80
2022/09/05 07:26:06;;;;;;;9.80;7.70;;;;;;;;;;5085562;28;20035;-82
2022/09/05 07:28:33;;;;;;;12.82;9.48;;;;;;;;;;5073838;28;20046;-84
2022/09/05 07:31:02;;;;;;;17.50;9.82;;;;;;;;;;5092223;28;20494;-82
2022/09/05 07:33:30;;;;;;;28.95;14.38;;;;;;;;;;5086629;28;20102;-80
2022/09/05 07:36:02;;;;;;;21.58;11.25;;;;;;;;;;5079778;28;20069;-77
2022/09/05 07:38:29;;;;;;;34.92;15.32;;;;;;;;;;5071575;28;20593;-79
2022/09/05 07:41:02;;;;;;;14.77;9.95;;;;;;;;;;5073991;28;20025;-80
2022/09/05 07:43:32;;;;;;;42.17;18.70;;;;;;;;;;5091963;28;20023;-80
2022/09/05 07:46:17;;;;;;;21.33;12.45;;;;;;;;;;5099709;28;20470;-84
2022/09/05 07:48:46;;;;;;;8.70;7.75;;;;;;;;;;5087732;28;20521;-78
2022/09/05 07:51:28;;;;;;;8.90;6.65;;;;;;;;;;5090475;28;20059;-77
2022/09/05 07:53:57;;;;;;;8.80;6.93;;;;;;;;;;5086134;28;20024;-83
2022/09/05 07:56:42;;;;;;;7.93;7.13;;;;;;;;;;5081249;28;20387;-80
2022/09/05 07:59:10;;;;;;;9.05;8.15;;;;;;;;;;5086537;28;20051;-79
2022/09/05 08:01:38;;;;;;;8.70;7.90;;;;;;;;;;5091153;28;20050;-76
2022/09/05 08:04:04;;;;;;;7.35;6.75;;;;;;;;;;5085077;28;20025;-76
2022/09/05 08:06:30;;;;;;;8.00;7.20;;;;;;;;;;5080386;28;20123;-76
2022/09/05 08:09:04;;;;;;;8.10;7.40;;;;;;;;;;5083746;28;20105;-76
2022/09/05 08:11:32;;;;;;;7.60;6.82;;;;;;;;;;5085550;28;20491;-76
2022/09/05 08:14:27;;;;;;;7.28;6.68;;;;;;;;;;5089994;28;20063;-77
2022/09/05 08:16:53;;;;;;;7.25;6.55;;;;;;;;;;5065620;28;20064;-75
2022/09/05 08:19:42;;;;;;;8.13;6.40;;;;;;;;;;5080266;28;20032;-76
2022/09/05 08:22:14;;;;;;;7.10;6.40;;;;;;;;;;5084631;28;20079;-79
2022/09/05 08:24:45;;;;;;;6.68;5.78;;;;;;;;;;5084876;28;20023;-78
2022/09/05 08:27:21;;;;;;;6.50;5.90;;;;;;;;;;5104487;28;20035;-77
2022/09/05 08:29:47;;;;;;;6.72;6.13;;;;;;;;;;5097030;28;20039;-78
2022/09/05 08:32:16;;;;;;;7.55;6.85;;;;;;;;;;5088878;28;20036;-77
2022/09/05 08:34:46;;;;;;;6.72;5.30;;;;;;;;;;5070684;28;20032;-76
2022/09/05 08:37:15;;;;;;;6.38;5.75;;;;;;;;;;5070877;28;20537;-78
2022/09/05 08:39:43;;;;;;;6.88;6.05;;;;;;;;;;5081880;28;20027;-78
2022/09/05 08:42:10;;;;;;;8.13;6.03;;;;;;;;;;5087757;28;20020;-79
2022/09/05 08:44:39;;;;;;;7.63;5.53;;;;;;;;;;5081680;28;20037;-76
2022/09/05 08:47:19;;;;;;;6.22;5.63;;;;;;;;;;5091655;28;20043;-75
2022/09/05 08:50:04;;;;;;;6.70;5.82;;;;;;;;;;5087404;28;20097;-77
2022/09/05 08:52:41;;;;;;;7.15;6.28;;;;;;;;;;5087109;28;20051;-77
2022/09/05 08:55:16;;;;;;;7.65;6.60;;;;;;;;;;5089420;28;20028;-79
2022/09/05 08:57:45;;;;;;;5.95;5.13;;;;;;;;;;5090573;28;20028;-78
2022/09/05 09:00:20;;;;;;;6.88;5.70;;;;;;;;;;5096592;28;20024;-77
2022/09/05 09:03:01;;;;;;;7.00;5.60;;;;;;;;;;5091945;28;20505;-77
2022/09/05 09:05:46;;;;;;;6.60;5.53;;;;;;;;;;5098705;28;20032;-76
2022/09/05 09:08:19;;;;;;;6.22;5.60;;;;;;;;;;5091067;28;20031;-73
2022/09/05 09:10:58;;;;;;;6.32;5.72;;;;;;;;;;5093243;28;20050;-76
2022/09/05 09:13:36;;;;;;;6.60;5.88;;;;;;;;;;5082275;28;20056;-77
2022/09/05 09:16:05;;;;;;;7.30;5.60;;;;;;;;;;5087303;28;20165;-78
2022/09/05 09:18:50;;;;;;;6.13;5.53;;;;;;;;;;5094931;28;20119;-77
2022/09/05 09:21:16;;;;;;;5.53;5.05;;;;;;;;;;5093666;28;20130;-79
2022/09/05 09:23:49;;;;;;;7.32;6.18;;;;;;;;;;5094210;28;20028;-75
2022/09/05 09:26:17;;;;;;;6.60;5.25;;;;;;;;;;5098741;28;20019;-78
2022/09/05 09:29:01;;;;;;;5.97;5.43;;;;;;;;;;5113500;28;20030;-77
2022/09/05 09:31:39;;;;;;;7.97;5.43;;;;;;;;;;5110258;28;20123;-76
2022/09/05 09:34:24;;;;;;;6.13;5.40;;;;;;;;;;5096224;28;20023;-77
2022/09/05 09:36:50;;;;;;;5.40;4.90;;;;;;;;;;5091662;28;20115;-78
2022/09/05 09:39:36;;;;;;;6.13;5.63;;;;;;;;;;5093698;28;20167;-77
2022/09/05 09:42:06;;;;;;;6.40;5.80;;;;;;;;;;5094490;28;20596;-79
2022/09/05 09:44:51;;;;;;;5.88;5.35;;;;;;;;;;5099845;28;20028;-79
2022/09/05 09:47:27;;;;;;;6.38;5.70;;;;;;;;;;5095753;28;20032;-78
2022/09/05 09:49:53;;;;;;;5.78;5.28;;;;;;;;;;5095162;28;20030;-78
2022/09/05 09:52:30;;;;;;;8.95;7.28;;;;;;;;;;5092343;28;20035;-77
2022/09/05 09:55:15;;;;;;;10.23;6.28;;;;;;;;;;5090407;28;20138;-78
2022/09/05 09:58:02;;;;;;;8.70;7.88;;;;;;;;;;5092914;28;20102;-78
2022/09/05 10:00:34;;;;;;;8.13;7.32;;;;;;;;;;5093165;28;20099;-79
2022/09/05 10:03:08;;;;;;;6.40;5.80;;;;;;;;;;5094402;28;20031;-80
2022/09/05 10:05:34;;;;;;;;;;;;;;;;;;5095872;28;20032;-77
2022/09/05 10:08:18;;;;;;;7.13;6.43;;;;;;;;;;5097843;28;19975;-75
2022/09/05 10:11:03;;;;;;;5.90;5.40;;;;;;;;;;5087621;28;20024;-77
2022/09/05 10:13:48;;;;;;;8.48;5.97;;;;;;;;;;5087538;28;20097;-75
2022/09/05 10:16:17;;;;;;;6.47;5.78;;;;;;;;;;5080628;28;20505;-76
2022/09/05 10:18:43;;;;;;;6.60;6.00;;;;;;;;;;5079170;28;20108;-77
2022/09/05 10:21:17;;;;;;;6.43;5.78;;;;;;;;;;5082130;28;20039;-77
2022/09/05 10:23:44;;;;;;;;;;;;;;;;;;5082204;28;20024;-75
2022/09/05 10:26:10;;;;;;;6.97;5.68;;;;;;;;;;5089028;28;19908;-76
2022/09/05 10:28:36;;;;;;;5.82;5.32;;;;;;;;;;5082049;28;20055;-78
2022/09/05 10:31:22;;;;;;;7.75;6.03;;;;;;;;;;5082769;28;20024;-76
2022/09/05 10:34:08;;;;;;;6.03;5.28;;;;;;;;;;5076834;28;20074;-78
2022/09/05 10:36:35;;;;;;;5.43;4.93;;;;;;;;;;5079352;28;20074;-77
2022/09/05 10:39:20;;;;;;;5.30;4.80;;;;;;;;;;5077028;28;20040;-77
2022/09/05 10:41:49;;;;;;;6.25;5.40;;;;;;;;;;5071539;28;20032;-78
2022/09/05 10:44:30;;;;;;;5.20;4.80;;;;;;;;;;5082928;28;20035;-76
2022/09/05 10:47:04;;;;;;;4.63;4.22;;;;;;;;;;5070853;28;20025;-78
2022/09/05 10:49:34;;;;;;;5.53;4.97;;;;;;;;;;5069432;28;20048;-81
2022/09/05 10:52:09;;;;;;;5.28;4.82;;;;;;;;;;5064545;28;20039;-81
2022/09/05 10:54:54;;;;;;;4.47;4.07;;;;;;;;;;5071570;28;20055;-80
2022/09/05 10:57:20;;;;;;;5.20;4.72;;;;;;;;;;5062522;28;20040;-77
2022/09/05 11:00:03;;;;;;;6.22;5.63;;;;;;;;;;5071975;28;20102;-78
2022/09/05 11:02:30;;;;;;;4.88;4.43;;;;;;;;;;5072602;28;20036;-80
2022/09/05 11:05:16;;;;;;;6.95;6.22;;;;;;;;;;5070932;28;20141;-79
2022/09/05 11:07:46;;;;;;;5.50;5.10;;;;;;;;;;5069243;28;20032;-79
2022/09/05 11:10:30;;;;;;;4.80;4.40;;;;;;;;;;5065145;28;20028;-78
2022/09/05 11:13:00;;;;;;;5.70;4.90;;;;;;;;;;5072005;28;20101;-77
2022/09/05 11:15:39;;;;;;;4.78;4.32;;;;;;;;;;5077484;28;20491;-78
2022/09/05 11:18:17;;;;;;;5.38;4.88;;;;;;;;;;5084678;28;20051;-79
2022/09/05 11:20:49;;;;;;;5.00;4.60;;;;;;;;;;5090474;28;20028;-79
2022/09/05 11:23:19;;;;;;;6.80;3.97;;;;;;;;;;5072085;28;20490;-80
2022/09/05 11:25:46;;;;;;;4.95;3.90;;;;;;;;;;5074667;28;20119;-78
2022/09/05 11:28:17;;;;;;;5.50;4.85;;;;;;;;;;5090766;28;20028;-79
2022/09/05 11:30:48;;;;;;;4.40;3.75;;;;;;;;;;5090904;28;20573;-76
2022/09/05 11:33:32;;;;;;;4.70;4.30;;;;;;;;;;5091711;28;20372;-80
2022/09/05 11:36:04;;;;;;;4.15;3.78;;;;;;;;;;5088978;28;20081;-80
2022/09/05 11:38:30;;;;;;;4.20;3.80;;;;;;;;;;5091880;28;20032;-79
2022/09/05 11:41:16;;;;;;;4.35;3.83;;;;;;;;;;5092226;28;20020;-78
2022/09/05 11:44:00;;;;;;;5.20;4.13;;;;;;;;;;5091443;28;20031;-80
2022/09/05 11:46:38;;;;;;;9.75;8.05;;;;;;;;;;5072001;28;20102;-79
2022/09/05 11:49:07;;;;;;;4.75;4.35;;;;;;;;;;5071882;28;20467;-77
2022/09/05 11:51:48;;;;;;;4.55;3.90;;;;;;;;;;5071993;28;20397;-74
2022/09/05 11:54:36;;;;;;;4.20;3.90;;;;;;;;;;5072235;28;20029;-78
2022/09/05 11:57:13;;;;;;;5.20;3.97;;;;;;;;;;5072748;28;20028;-78
2022/09/05 11:59:59;;;;;;;4.53;4.22;;;;;;;;;;5065695;28;20069;-78
2022/09/05 12:02:40;;;;;;;6.47;3.90;;;;;;;;;;5052218;28;20530;-77
2022/09/05 12:05:25;;;;;;;12.20;11.20;;;;;;;;;;5069032;28;20028;-78
2022/09/05 12:08:07;;;;;;;4.30;3.90;;;;;;;;;;5069555;28;20379;-77
2022/09/05 12:10:58;;;;;;;8.30;7.65;;;;;;;;;;5069532;28;20044;-79
2022/09/05 12:13:24;;;;;;;8.57;7.85;;;;;;;;;;5066579;28;20025;-77
2022/09/05 12:15:51;;;;;;;4.25;3.85;;;;;;;;;;5069806;28;20494;-81
2022/09/05 12:18:28;;;;;;;4.60;4.15;;;;;;;;;;5070314;28;20064;-77
2022/09/05 12:21:03;;;;;;;3.85;3.42;;;;;;;;;;5069521;28;20038;-79
2022/09/05 12:23:31;;;;;;;3.65;3.33;;;;;;;;;;5066262;28;20039;-78
2022/09/05 12:26:16;;;;;;;4.82;4.40;;;;;;;;;;5071963;28;20036;-77
2022/09/05 12:28:42;;;;;;;5.45;4.43;;;;;;;;;;5072229;28;20103;-78
2022/09/05 12:31:27;;;;;;;7.75;4.40;;;;;;;;;;5071599;28;20411;-78
2022/09/05 12:33:53;;;;;;;6.57;5.90;;;;;;;;;;5071621;28;20032;-78
2022/09/05 12:36:34;;;;;;;4.53;4.13;;;;;;;;;;5076218;28;20028;-79
2022/09/05 12:39:06;;;;;;;4.95;4.28;;;;;;;;;;5093154;28;20044;-80
2022/09/05 12:41:51;;;;;;;5.15;4.72;;;;;;;;;;5067336;28;20056;-78
2022/09/05 12:44:35;;;;;;;10.43;7.47;;;;;;;;;;5065158;28;20031;-77
2022/09/05 12:47:01;;;;;;;11.63;10.45;;;;;;;;;;5086361;28;20077;-80
2022/09/05 12:49:46;;;;;;;8.75;7.88;;;;;;;;;;5087793;28;20475;-82
2022/09/05 12:52:18;;;;;;;7.05;5.72;;;;;;;;;;5082119;28;20511;-79
2022/09/05 12:54:48;;;;;;;5.45;4.95;;;;;;;;;;5069938;28;20028;-80
2022/09/05 12:57:17;;;;;;;6.60;5.80;;;;;;;;;;5066681;28;20021;-81
2022/09/05 12:59:46;;;;;;;5.90;4.22;;;;;;;;;;5061736;28;20037;-79
2022/09/05 13:02:16;;;;;;;7.55;5.90;;;;;;;;;;5066903;28;20113;-78
2022/09/05 13:04:45;;;;;;;4.30;3.40;;;;;;;;;;5070730;28;20515;-81
2022/09/05 13:07:13;;;;;;;5.13;4.35;;;;;;;;;;5071516;28;20032;-77
2022/09/05 13:09:47;;;;;;;5.80;5.30;;;;;;;;;;5071024;28;20165;-79
2022/09/05 13:12:34;;;;;;;7.20;6.25;;;;;;;;;;5071351;28;20025;-78
2022/09/05 13:15:34;;;;;;;5.38;4.70;;;;;;;;;;5072196;28;20056;-80
2022/09/05 13:18:14;;;;;;;3.33;3.03;;;;;;;;;;5084318;28;20048;-79
2022/09/05 13:20:50;;;;;;;2.80;2.60;;;;;;;;;;5091559;28;20032;-80
2022/09/05 13:23:36;;;;;;;3.47;3.17;;;;;;;;;;5091608;28;20066;-77
2022/09/05 13:26:10;;;;;;;3.35;3.03;;;;;;;;;;5091290;28;20165;-76
2022/09/05 13:28:55;;;;;;;4.65;2.97;;;;;;;;;;5090941;28;20024;-75
2022/09/05 13:31:39;;;;;;;2.92;2.63;;;;;;;;;;5091433;28;20028;-76
2022/09/05 13:34:10;;;;;;;2.88;2.60;;;;;;;;;;5104965;28;20115;-77
2022/09/05 13:36:41;;;;;;;3.05;2.55;;;;;;;;;;5111760;28;20027;-76
2022/09/05 13:39:10;;;;;;;3.13;2.83;;;;;;;;;;5111687;28;20078;-76
2022/09/05 13:41:44;;;;;;;3.80;3.08;;;;;;;;;;5111772;28;20077;-76
2022/09/05 13:44:15;;;;;;;2.63;2.42;;;;;;;;;;5111908;28;20111;-76
2022/09/05 13:46:59;;;;;;;3.40;2.75;;;;;;;;;;5110929;28;20062;-76
2022/09/05 13:49:25;;;;;;;;;;;;;;;;;;5115452;28;20358;-76
2022/09/05 13:51:54;;;;;;;3.47;3.10;;;;;;;;;;5115335;28;19910;-76
2022/09/05 13:54:39;;;;;;;4.15;3.10;;;;;;;;;;5115169;28;20477;-76
2022/09/05 13:57:15;;;;;;;3.65;2.65;;;;;;;;;;5115316;28;20106;-76
2022/09/05 14:00:01;;;;;;;2.40;2.20;;;;;;;;;;5115284;28;20122;-77
2022/09/05 14:02:46;;;;;;;4.22;3.15;;;;;;;;;;5115305;28;20072;-76
2022/09/05 14:05:31;;;;;;;3.15;2.75;;;;;;;;;;5115393;28;20492;-75
2022/09/05 14:08:16;;;;;;;3.03;2.40;;;;;;;;;;5115201;28;20020;-76
2022/09/05 14:10:55;;;;;;;2.72;2.45;;;;;;;;;;5115191;28;20020;-77
2022/09/05 14:13:26;;;;;;;6.55;3.33;;;;;;;;;;5115168;28;20031;-76
2022/09/05 14:15:55;;;;;;;3.03;2.50;;;;;;;;;;5102252;28;20054;-76
2022/09/05 14:18:23;;;;;;;3.33;2.05;;;;;;;;;;5094589;28;20035;-76
2022/09/05 14:23:41;;;;;;;3.30;2.47;;;;;;;;;;5094187;28;20039;-76
2022/09/05 14:26:12;;;;;;;3.33;2.55;;;;;;;;;;5094309;28;20032;-76
2022/09/05 14:28:43;;;;;;;3.28;2.25;;;;;;;;;;5082998;28;20040;-76
2022/09/05 14:31:10;;;;;;;2.90;2.40;;;;;;;;;;5073835;28;20481;-76
2022/09/05 14:33:40;;;;;;;4.38;2.55;;;;;;;;;;5074225;28;20081;-75
2022/09/05 14:36:07;;;;;;;3.80;2.28;;;;;;;;;;5073589;28;20032;-76
2022/09/05 14:38:51;;;;;;;2.63;2.17;;;;;;;;;;5074110;28;20479;-76
2022/09/05 14:41:23;;;;;;;2.22;2.03;;;;;;;;;;5073964;28;20028;-76
2022/09/05 14:43:52;;;;;;;3.03;2.67;;;;;;;;;;5073637;28;20037;-73
2022/09/05 14:46:37;;;;;;;3.42;2.13;;;;;;;;;;5073572;28;20027;-75
2022/09/05 14:49:22;;;;;;;3.88;2.30;;;;;;;;;;5073839;28;20025;-76
2022/09/05 14:51:50;;;;;;;4.03;2.70;;;;;;;;;;5073772;28;20028;-77
2022/09/05 14:54:35;;;;;;;2.55;2.00;;;;;;;;;;5073570;28;20032;-76
2022/09/05 14:57:04;;;;;;;2.80;2.20;;;;;;;;;;5073645;28;20498;-76
2022/09/05 14:59:31;;;;;;;3.85;2.28;;;;;;;;;;5072806;28;20032;-77
2022/09/05 15:02:03;;;;;;;4.47;3.20;;;;;;;;;;5073472;28;20519;-76
2022/09/05 15:04:51;;;;;;;3.60;2.35;;;;;;;;;;5073407;28;20034;-76
2022/09/05 15:07:35;;;;;;;2.50;2.30;;;;;;;;;;5073476;28;20109;-76
2022/09/05 15:10:20;;;;;;;2.42;2.10;;;;;;;;;;5073223;28;20031;-76
2022/09/05 15:13:06;;;;;;;2.88;2.58;;;;;;;;;;5073562;28;20107;-77
2022/09/05 15:15:37;;;;;;;3.55;2.83;;;;;;;;;;5082175;28;20040;-75
2022/09/05 15:18:07;;;;;;;2.45;1.90;;;;;;;;;;5092882;28;20047;-77
2022/09/05 15:20:37;;;;;;;2.70;2.50;;;;;;;;;;5093331;28;20533;-76
2022/09/05 15:23:06;;;;;;;6.78;3.80;;;;;;;;;;5092383;28;20039;-75
2022/09/05 15:25:41;;;;;;;3.67;2.42;;;;;;;;;;5093243;28;20077;-75
2022/09/05 15:28:07;;;;;;;2.83;2.47;;;;;;;;;;5093015;28;20035;-76
2022/09/05 15:30:33;;;;;;;3.03;2.72;;;;;;;;;;5092300;28;20024;-76
2022/09/05 15:33:20;;;;;;;2.40;2.20;;;;;;;;;;5088069;28;20487;-77
2022/09/05 15:35:46;;;;;;;2.47;2.28;;;;;;;;;;5090406;28;20112;-76
2022/09/05 15:38:30;;;;;;;2.90;2.17;;;;;;;;;;5092919;28;20040;-76